createdAt,value
2022-11-29T00:00:07.190Z,17.50
2022-11-29T00:02:35.304Z,16.60
2022-11-29T00:05:05.096Z,17.10
2022-11-29T00:07:33.219Z,17.30
2022-11-29T00:10:01.270Z,14.07
2022-11-29T00:12:29.626Z,14.40
2022-11-29T00:14:57.676Z,14.93
2022-11-29T00:17:25.730Z,15.60
2022-11-29T00:19:53.777Z,22.63
2022-11-29T00:22:25.138Z,14.83
2022-11-29T00:24:53.347Z,16.30
2022-11-29T00:27:21.525Z,17.47
2022-11-29T00:29:49.531Z,17.50
2022-11-29T00:32:17.698Z,15.80
2022-11-29T00:34:45.970Z,15.13
2022-11-29T00:37:14.540Z,16.37
2022-11-29T00:39:43.999Z,18.70
2022-11-29T00:42:12.071Z,17.73
2022-11-29T00:44:40.068Z,13.77
2022-11-29T00:47:08.152Z,15.10
2022-11-29T00:49:36.313Z,14.70
2022-11-29T00:52:05.065Z,14.83
2022-11-29T00:54:33.125Z,16.73
2022-11-29T00:57:02.803Z,15.30
2022-11-29T00:59:31.332Z,15.77
2022-11-29T01:01:59.389Z,16.07
2022-11-29T01:04:27.742Z,17.20
2022-11-29T01:06:55.743Z,13.37
2022-11-29T01:09:23.817Z,14.40
2022-11-29T01:11:51.920Z,15.67
2022-11-29T01:14:21.819Z,15.70
2022-11-29T01:16:49.917Z,14.83
2022-11-29T01:19:18.066Z,17.20
2022-11-29T01:21:46.062Z,16.23
2022-11-29T01:24:14.151Z,14.93
2022-11-29T01:26:43.226Z,14.57
2022-11-29T01:29:14.043Z,18.00
2022-11-29T01:31:43.555Z,15.00
2022-11-29T01:34:11.786Z,15.13
2022-11-29T01:36:39.806Z,13.53
2022-11-29T01:39:08.007Z,16.77
2022-11-29T01:41:37.737Z,13.37
2022-11-29T01:44:08.775Z,12.70
2022-11-29T01:46:38.833Z,12.27
2022-11-29T01:49:12.001Z,15.90
2022-11-29T01:51:42.993Z,15.17
2022-11-29T01:54:13.048Z,13.60
2022-11-29T01:56:42.246Z,13.17
2022-11-29T01:59:12.524Z,14.03
2022-11-29T02:01:40.658Z,13.27
2022-11-29T02:04:10.269Z,12.57
2022-11-29T02:06:39.790Z,12.13
2022-11-29T02:09:19.063Z,13.23
2022-11-29T02:12:08.998Z,11.47
2022-11-29T02:15:13.538Z,13.83
2022-11-29T02:17:58.896Z,12.33
2022-11-29T02:21:03.751Z,11.33
2022-11-29T02:24:26.179Z,12.27
2022-11-29T02:27:07.722Z,11.33
2022-11-29T02:29:54.548Z,11.60
2022-11-29T02:33:06.424Z,10.80
2022-11-29T02:36:02.558Z,13.37
2022-11-29T02:38:50.761Z,10.30
2022-11-29T02:41:31.979Z,11.40
2022-11-29T02:44:24.044Z,10.43
2022-11-29T02:47:09.210Z,12.53
2022-11-29T02:50:04.606Z,9.87
2022-11-29T02:52:41.396Z,14.47
2022-11-29T02:55:21.873Z,26.30
2022-11-29T02:57:58.521Z,16.27
2022-11-29T03:00:26.803Z,11.80
2022-11-29T03:03:01.965Z,10.93
2022-11-29T03:05:41.911Z,10.30
2022-11-29T03:08:19.282Z,9.77
2022-11-29T03:10:57.654Z,9.47
2022-11-29T03:13:35.615Z,9.20
2022-11-29T03:16:12.596Z,10.60
2022-11-29T03:18:55.980Z,9.70
2022-11-29T03:21:40.572Z,11.33
2022-11-29T03:24:14.922Z,8.60
2022-11-29T03:26:46.575Z,8.83
2022-11-29T03:29:25.744Z,8.10
2022-11-29T03:31:58.209Z,10.80
2022-11-29T03:34:44.161Z,9.50
2022-11-29T03:37:17.262Z,10.80
2022-11-29T03:39:52.571Z,8.73
2022-11-29T03:42:26.450Z,9.67
2022-11-29T03:44:59.994Z,10.00
2022-11-29T03:47:32.900Z,11.23
2022-11-29T03:50:06.887Z,8.43
2022-11-29T03:52:45.691Z,9.23
2022-11-29T03:55:25.986Z,9.30
2022-11-29T03:58:11.028Z,11.80
2022-11-29T04:01:02.761Z,11.23
2022-11-29T04:03:52.888Z,10.83
2022-11-29T04:06:28.413Z,9.80
2022-11-29T04:09:25.384Z,10.07
2022-11-29T04:12:22.080Z,10.77
2022-11-29T04:15:15.557Z,9.47
2022-11-29T04:18:20.080Z,11.10
2022-11-29T04:21:06.622Z,8.60
2022-11-29T04:24:22.642Z,7.70
2022-11-29T04:27:31.106Z,7.23
2022-11-29T04:30:19.869Z,6.20
2022-11-29T04:33:20.660Z,7.43
2022-11-29T04:36:33.240Z,9.20
2022-11-29T04:39:18.161Z,6.63
2022-11-29T04:42:10.083Z,6.37
2022-11-29T04:45:13.617Z,6.80
2022-11-29T04:47:53.683Z,6.70
2022-11-29T04:50:34.189Z,5.33
2022-11-29T04:53:24.981Z,5.90
2022-11-29T04:56:02.199Z,4.93
2022-11-29T04:58:38.605Z,5.90
2022-11-29T05:01:16.136Z,5.80
2022-11-29T05:03:56.763Z,3.83
2022-11-29T05:06:30.681Z,5.60
2022-11-29T05:09:08.064Z,4.40
2022-11-29T05:11:52.034Z,3.57
2022-11-29T05:14:31.794Z,4.50
2022-11-29T05:17:21.098Z,3.50
2022-11-29T05:20:02.169Z,4.30
2022-11-29T05:22:35.792Z,5.13
2022-11-29T05:25:24.614Z,3.67
2022-11-29T05:27:58.882Z,4.77
2022-11-29T05:30:33.962Z,5.13
2022-11-29T05:33:13.406Z,4.10
2022-11-29T05:35:52.983Z,4.90
2022-11-29T05:38:53.543Z,4.53
2022-11-29T05:41:41.065Z,4.40
2022-11-29T05:44:14.118Z,3.70
2022-11-29T05:46:51.862Z,4.10
2022-11-29T05:49:29.493Z,5.00
2022-11-29T05:52:06.766Z,4.90
2022-11-29T05:54:38.256Z,3.73
2022-11-29T05:57:15.566Z,5.37
2022-11-29T05:59:46.833Z,4.47
2022-11-29T06:02:29.189Z,4.93
2022-11-29T06:05:07.550Z,5.30
2022-11-29T06:07:44.728Z,7.00
2022-11-29T06:10:17.680Z,4.30
2022-11-29T06:13:00.161Z,5.90
2022-11-29T06:15:46.085Z,4.57
2022-11-29T06:18:37.305Z,3.60
2022-11-29T06:21:22.289Z,5.03
2022-11-29T06:24:11.665Z,4.70
2022-11-29T06:26:54.672Z,4.87
2022-11-29T06:29:28.703Z,6.43
2022-11-29T06:32:04.490Z,5.20
2022-11-29T06:34:42.651Z,8.73
2022-11-29T06:37:17.897Z,5.77
2022-11-29T06:39:46.430Z,4.77
2022-11-29T06:42:14.546Z,5.60
2022-11-29T06:44:43.689Z,8.47
2022-11-29T06:47:18.808Z,5.33
2022-11-29T06:49:50.224Z,6.93
2022-11-29T06:52:28.381Z,4.87
2022-11-29T06:55:07.610Z,6.33
2022-11-29T06:57:47.195Z,7.70
2022-11-29T07:00:19.896Z,5.70
2022-11-29T07:03:13.319Z,6.83
2022-11-29T07:05:41.895Z,6.20
2022-11-29T07:08:15.973Z,6.30
2022-11-29T07:10:49.380Z,5.93
2022-11-29T07:13:18.613Z,7.23
2022-11-29T07:15:56.641Z,6.97
2022-11-29T07:18:32.076Z,6.10
2022-11-29T07:21:08.419Z,7.20
2022-11-29T07:23:43.322Z,5.93
2022-11-29T07:26:22.603Z,6.60
2022-11-29T07:29:06.893Z,8.93
2022-11-29T07:31:43.361Z,6.70
2022-11-29T07:34:20.853Z,5.83
2022-11-29T07:36:56.348Z,10.20
2022-11-29T07:39:39.200Z,9.80
2022-11-29T07:42:15.090Z,8.83
2022-11-29T07:44:52.494Z,9.23
2022-11-29T07:47:20.516Z,8.87
2022-11-29T07:49:48.508Z,6.87
2022-11-29T07:52:17.865Z,6.73
2022-11-29T07:54:47.568Z,6.83
2022-11-29T07:57:16.745Z,5.97
2022-11-29T07:59:45.040Z,6.47
2022-11-29T08:02:13.395Z,7.53
2022-11-29T08:04:45.356Z,8.33
2022-11-29T08:07:14.041Z,9.40
2022-11-29T08:09:42.124Z,6.87
2022-11-29T08:12:11.469Z,7.40
2022-11-29T08:14:39.530Z,5.97
2022-11-29T08:17:07.608Z,6.10
2022-11-29T08:19:35.676Z,8.07
2022-11-29T08:22:03.782Z,6.80
2022-11-29T08:24:31.922Z,6.10
2022-11-29T08:26:59.988Z,7.00
2022-11-29T08:29:29.391Z,6.57
2022-11-29T08:31:57.575Z,6.23
2022-11-29T08:34:26.537Z,6.47
2022-11-29T08:36:56.901Z,5.93
2022-11-29T08:39:25.051Z,5.47
2022-11-29T08:41:53.157Z,7.67
2022-11-29T08:44:21.182Z,7.33
2022-11-29T08:47:08.125Z,6.17
2022-11-29T08:49:56.175Z,5.33
2022-11-29T08:52:41.758Z,5.60
2022-11-29T08:55:10.670Z,8.77
2022-11-29T08:57:40.607Z,10.73
2022-11-29T09:00:10.468Z,7.80
2022-11-29T09:02:40.310Z,5.63
2022-11-29T09:05:09.890Z,7.20
2022-11-29T09:07:38.643Z,6.23
2022-11-29T09:10:08.952Z,5.50
2022-11-29T09:12:38.054Z,5.83
2022-11-29T09:15:08.132Z,4.60
2022-11-29T09:17:36.305Z,6.27
2022-11-29T09:20:08.023Z,4.93
2022-11-29T09:22:37.324Z,4.43
2022-11-29T09:25:06.128Z,8.07
2022-11-29T09:27:34.196Z,6.70
2022-11-29T09:30:02.181Z,6.90
2022-11-29T09:32:31.465Z,5.77
2022-11-29T09:34:59.569Z,9.23
2022-11-29T09:37:29.026Z,8.93
2022-11-29T09:39:57.094Z,6.97
2022-11-29T09:42:43.055Z,8.40
2022-11-29T09:45:18.467Z,9.17
2022-11-29T09:48:14.769Z,10.37
2022-11-29T09:50:49.014Z,10.13
2022-11-29T09:53:31.354Z,9.00
2022-11-29T09:56:09.681Z,9.50
2022-11-29T09:58:44.701Z,11.13
2022-11-29T10:01:18.949Z,12.70
2022-11-29T10:03:52.830Z,8.67
2022-11-29T10:06:25.972Z,10.73
2022-11-29T10:09:00.488Z,10.00
2022-11-29T10:11:33.027Z,10.37
2022-11-29T10:14:09.448Z,11.77
2022-11-29T10:16:44.318Z,10.23
2022-11-29T10:19:20.564Z,9.20
2022-11-29T10:22:00.299Z,13.13
2022-11-29T10:24:30.937Z,12.07
2022-11-29T10:26:59.420Z,10.67
2022-11-29T10:29:27.748Z,14.37
2022-11-29T10:31:56.834Z,13.90
2022-11-29T10:34:27.070Z,17.57
2022-11-29T10:36:59.483Z,15.97
2022-11-29T10:39:37.101Z,16.57
2022-11-29T10:42:06.564Z,17.50
2022-11-29T10:44:34.992Z,18.90
2022-11-29T10:47:10.678Z,16.00
2022-11-29T10:49:40.190Z,13.60
2022-11-29T10:52:19.322Z,16.03
2022-11-29T10:54:50.702Z,14.00
2022-11-29T10:57:21.091Z,18.50
2022-11-29T11:00:01.780Z,12.83
2022-11-29T11:02:30.427Z,13.80
2022-11-29T11:04:59.687Z,16.40
2022-11-29T11:07:33.005Z,12.53
2022-11-29T11:10:04.201Z,12.57
2022-11-29T11:12:34.015Z,11.70
2022-11-29T11:15:27.168Z,13.20
2022-11-29T11:18:00.271Z,12.13
2022-11-29T11:20:31.390Z,13.43
2022-11-29T11:23:01.933Z,12.37
2022-11-29T11:25:34.694Z,12.47
2022-11-29T11:28:17.989Z,10.63
2022-11-29T11:30:52.659Z,10.73
2022-11-29T11:33:25.075Z,14.77
2022-11-29T11:36:08.400Z,8.87
2022-11-29T11:38:38.483Z,10.30
2022-11-29T11:41:18.151Z,10.77
2022-11-29T11:43:56.304Z,10.10
2022-11-29T11:46:24.385Z,12.90
2022-11-29T11:48:54.068Z,11.40
2022-11-29T11:51:25.668Z,11.23
2022-11-29T11:53:57.178Z,11.23
2022-11-29T11:56:35.859Z,11.27
2022-11-29T11:59:04.578Z,12.87
2022-11-29T12:01:38.866Z,9.60
2022-11-29T12:04:13.276Z,10.33
2022-11-29T12:06:48.056Z,9.83
2022-11-29T12:09:29.257Z,12.93
2022-11-29T12:12:05.263Z,10.53
2022-11-29T12:14:41.393Z,9.70
2022-11-29T12:17:20.230Z,9.30
2022-11-29T12:20:01.036Z,10.70
2022-11-29T12:22:39.311Z,11.10
2022-11-29T12:25:14.843Z,8.90
2022-11-29T12:27:44.212Z,9.60
2022-11-29T12:30:14.877Z,8.20
2022-11-29T12:33:07.324Z,7.60
2022-11-29T12:35:53.631Z,8.70
2022-11-29T12:38:49.574Z,10.00
2022-11-29T12:41:32.567Z,9.07
2022-11-29T12:44:11.999Z,10.50
2022-11-29T12:46:41.060Z,11.33
2022-11-29T12:49:19.050Z,9.30
2022-11-29T12:51:55.888Z,11.20
2022-11-29T12:54:38.845Z,11.50
2022-11-29T12:57:14.340Z,10.50
2022-11-29T13:00:02.137Z,9.53
2022-11-29T13:02:42.353Z,9.27
2022-11-29T13:05:19.528Z,12.37
2022-11-29T13:08:01.450Z,11.40
2022-11-29T13:10:37.601Z,10.67
2022-11-29T13:13:14.697Z,8.63
2022-11-29T13:15:49.856Z,13.23
2022-11-29T13:18:25.403Z,8.03
2022-11-29T13:21:00.222Z,8.03
2022-11-29T13:23:45.463Z,8.00
2022-11-29T13:26:28.107Z,6.70
2022-11-29T13:28:56.380Z,9.90
2022-11-29T13:31:32.015Z,8.67
2022-11-29T13:34:06.666Z,6.77
2022-11-29T13:36:44.684Z,6.73
2022-11-29T13:39:28.893Z,9.03
2022-11-29T13:42:06.343Z,9.00
2022-11-29T13:44:39.751Z,8.20
2022-11-29T13:47:11.949Z,9.40
2022-11-29T13:50:02.261Z,10.90
2022-11-29T13:52:41.893Z,11.33
2022-11-29T13:55:28.628Z,10.03
2022-11-29T13:58:16.408Z,9.10
2022-11-29T14:00:51.239Z,9.60
2022-11-29T14:03:30.932Z,8.73
2022-11-29T14:06:20.964Z,9.40
2022-11-29T14:09:22.750Z,8.47
2022-11-29T14:11:59.802Z,10.70
2022-11-29T14:14:32.330Z,10.40
2022-11-29T14:17:02.731Z,9.60
2022-11-29T14:19:34.564Z,9.90
2022-11-29T14:22:31.056Z,11.23
2022-11-29T14:28:33.758Z,11.53
2022-11-29T14:31:02.747Z,9.30
2022-11-29T14:33:45.809Z,12.80
2022-11-29T14:36:34.460Z,10.03
2022-11-29T14:39:20.377Z,10.00
2022-11-29T14:41:56.839Z,10.07
2022-11-29T14:44:28.093Z,10.13
2022-11-29T14:47:05.045Z,12.73
2022-11-29T14:49:40.535Z,8.80
2022-11-29T14:52:18.326Z,10.73
2022-11-29T14:54:56.630Z,10.13
2022-11-29T14:58:10.964Z,10.53
2022-11-29T15:00:44.473Z,10.93
2022-11-29T15:03:18.115Z,10.77
2022-11-29T15:05:51.259Z,11.37
2022-11-29T15:08:32.069Z,11.57
2022-11-29T15:11:04.415Z,13.30
2022-11-29T15:13:34.880Z,9.40
2022-11-29T15:16:33.436Z,8.43
2022-11-29T15:19:40.491Z,10.20
2022-11-29T15:22:16.418Z,10.23
2022-11-29T15:24:54.564Z,9.17
2022-11-29T15:27:23.282Z,10.13
2022-11-29T15:29:52.680Z,10.00
2022-11-29T15:32:27.030Z,9.57
2022-11-29T15:34:56.839Z,9.50
2022-11-29T15:37:39.936Z,10.20
2022-11-29T15:40:14.286Z,11.60
2022-11-29T15:42:45.043Z,9.50
2022-11-29T15:45:28.115Z,9.70
2022-11-29T15:48:14.263Z,10.37
2022-11-29T15:50:47.433Z,10.37
2022-11-29T15:53:19.577Z,12.40
2022-11-29T15:55:51.507Z,10.43
2022-11-29T15:58:21.655Z,10.47
2022-11-29T16:00:50.657Z,10.20
2022-11-29T16:03:25.176Z,10.70
2022-11-29T16:06:01.235Z,11.57
2022-11-29T16:08:34.215Z,11.97
2022-11-29T16:11:03.697Z,12.20
2022-11-29T16:13:37.719Z,11.73
2022-11-29T16:16:14.225Z,10.23
2022-11-29T16:18:44.156Z,10.90
2022-11-29T16:21:33.384Z,10.90
2022-11-29T16:24:13.754Z,11.80
2022-11-29T16:26:46.117Z,11.13
2022-11-29T16:29:24.509Z,11.27
2022-11-29T16:31:53.460Z,11.53
2022-11-29T16:34:27.423Z,13.17
2022-11-29T16:37:02.821Z,9.97
2022-11-29T16:39:31.000Z,13.73
2022-11-29T16:42:25.721Z,11.87
2022-11-29T16:45:24.081Z,12.10
2022-11-29T16:47:58.079Z,10.97
2022-11-29T16:50:27.228Z,12.57
2022-11-29T16:52:57.050Z,11.80
2022-11-29T16:55:25.397Z,10.77
2022-11-29T16:57:54.974Z,12.70
2022-11-29T17:00:31.364Z,10.83
2022-11-29T17:02:59.888Z,14.60
2022-11-29T17:05:28.147Z,11.60
2022-11-29T17:07:56.465Z,11.73
2022-11-29T17:10:26.399Z,12.00
2022-11-29T17:12:55.863Z,14.50
2022-11-29T17:15:23.976Z,15.30
2022-11-29T17:17:51.936Z,16.13
2022-11-29T17:20:19.986Z,16.23
2022-11-29T17:22:48.189Z,14.83
2022-11-29T17:25:16.370Z,16.80
2022-11-29T17:27:44.423Z,14.97
2022-11-29T17:30:14.913Z,14.90
2022-11-29T17:32:43.090Z,15.37
2022-11-29T17:35:11.158Z,14.80
2022-11-29T17:37:39.140Z,15.40
2022-11-29T17:40:08.668Z,18.60
2022-11-29T17:42:36.696Z,14.10
2022-11-29T17:45:05.237Z,14.20
2022-11-29T17:47:35.087Z,17.03
2022-11-29T17:50:03.123Z,14.20
2022-11-29T17:52:31.230Z,14.20
2022-11-29T17:54:59.263Z,16.47
2022-11-29T17:57:27.366Z,18.37
2022-11-29T17:59:55.364Z,17.37
2022-11-29T18:02:23.648Z,17.90
2022-11-29T18:04:53.284Z,17.83
2022-11-29T18:07:21.490Z,14.23
2022-11-29T18:09:49.721Z,17.20
2022-11-29T18:12:17.951Z,18.10
2022-11-29T18:14:45.918Z,18.93
2022-11-29T18:17:14.038Z,18.13
2022-11-29T18:19:42.305Z,20.77
2022-11-29T18:22:11.631Z,18.27
2022-11-29T18:24:43.394Z,19.17
2022-11-29T18:27:11.483Z,19.63
2022-11-29T18:29:39.671Z,19.33
2022-11-29T18:32:07.729Z,19.50
2022-11-29T18:34:35.898Z,20.73
2022-11-29T18:37:04.048Z,19.47
2022-11-29T18:39:33.463Z,21.93
2022-11-29T18:42:01.473Z,19.77
2022-11-29T18:44:30.213Z,18.97
2022-11-29T18:46:58.626Z,19.27
2022-11-29T18:49:26.771Z,19.67
2022-11-29T18:51:54.859Z,21.30
2022-11-29T18:54:22.997Z,19.33
2022-11-29T18:56:52.694Z,17.90
2022-11-29T18:59:22.936Z,22.73
2022-11-29T19:01:51.107Z,18.90
2022-11-29T19:04:21.552Z,24.47
2022-11-29T19:06:50.302Z,28.53
2022-11-29T19:09:21.914Z,22.00
2022-11-29T19:11:50.704Z,26.77
2022-11-29T19:14:20.407Z,24.27
2022-11-29T19:16:52.677Z,25.10
2022-11-29T19:19:20.948Z,23.03
2022-11-29T19:21:49.344Z,22.80
2022-11-29T19:24:18.497Z,22.43
2022-11-29T19:26:48.388Z,22.07
2022-11-29T19:29:17.275Z,25.43
2022-11-29T19:31:46.957Z,24.27
2022-11-29T19:34:15.117Z,21.20
2022-11-29T19:36:44.539Z,28.17
2022-11-29T19:39:14.197Z,22.87
2022-11-29T19:41:44.210Z,23.40
2022-11-29T19:44:13.032Z,27.23
2022-11-29T19:46:45.547Z,24.90
2022-11-29T19:49:15.393Z,25.80
2022-11-29T19:51:43.780Z,24.50
2022-11-29T19:54:17.814Z,22.90
2022-11-29T19:56:45.976Z,22.50
2022-11-29T19:59:14.321Z,28.00
2022-11-29T20:01:43.943Z,24.37
2022-11-29T20:04:16.700Z,23.30
2022-11-29T20:06:45.405Z,25.30
2022-11-29T20:09:14.572Z,24.20
2022-11-29T20:11:42.749Z,25.50
2022-11-29T20:14:13.180Z,23.80
2022-11-29T20:16:42.250Z,23.13
2022-11-29T20:19:12.847Z,21.13
2022-11-29T20:21:48.186Z,21.10
2022-11-29T20:24:17.778Z,20.93
2022-11-29T20:26:48.266Z,22.97
2022-11-29T20:29:17.133Z,23.73
2022-11-29T20:31:50.760Z,23.27
2022-11-29T20:34:20.805Z,20.77
2022-11-29T20:37:12.906Z,21.77
2022-11-29T20:39:47.033Z,19.73
2022-11-29T20:42:47.828Z,20.70
2022-11-29T20:45:16.850Z,17.53
2022-11-29T20:47:51.493Z,19.73
2022-11-29T20:50:23.444Z,20.50
2022-11-29T20:53:04.007Z,20.53
2022-11-29T20:55:32.199Z,19.90
2022-11-29T20:58:00.230Z,22.43
2022-11-29T21:00:31.000Z,17.60
2022-11-29T21:02:59.157Z,17.40
2022-11-29T21:05:27.979Z,22.33
2022-11-29T21:07:57.491Z,19.77
2022-11-29T21:10:25.642Z,17.10
2022-11-29T21:12:54.270Z,19.63
2022-11-29T21:15:23.398Z,22.10
2022-11-29T21:17:51.951Z,19.33
2022-11-29T21:20:23.455Z,25.13
2022-11-29T21:22:59.797Z,20.97
2022-11-29T21:25:42.415Z,21.17
2022-11-29T21:28:12.953Z,23.83
2022-11-29T21:30:41.867Z,19.83
2022-11-29T21:33:11.257Z,23.37
2022-11-29T21:35:40.330Z,21.13
2022-11-29T21:38:14.289Z,22.20
2022-11-29T21:40:43.694Z,23.63
2022-11-29T21:43:11.742Z,23.13
2022-11-29T21:45:39.819Z,21.10
2022-11-29T21:48:28.666Z,21.53
2022-11-29T21:50:57.597Z,24.13
2022-11-29T21:53:27.874Z,26.87
2022-11-29T21:56:02.111Z,23.60
2022-11-29T21:58:31.799Z,24.87
2022-11-29T22:01:07.541Z,23.53
2022-11-29T22:03:35.696Z,24.10
2022-11-29T22:06:05.756Z,26.67
2022-11-29T22:08:38.893Z,22.43
2022-11-29T22:11:10.386Z,23.00
2022-11-29T22:13:59.955Z,30.70
2022-11-29T22:16:28.442Z,24.83
2022-11-29T22:18:56.686Z,27.73
2022-11-29T22:21:24.814Z,22.90
2022-11-29T22:23:53.509Z,27.00
2022-11-29T22:26:22.905Z,26.03
2022-11-29T22:28:51.181Z,28.13
2022-11-29T22:31:19.231Z,26.67
2022-11-29T22:33:47.357Z,26.97
2022-11-29T22:36:15.501Z,26.17
2022-11-29T22:38:43.537Z,27.70
2022-11-29T22:41:13.757Z,30.47
2022-11-29T22:43:43.667Z,28.00
2022-11-29T22:46:14.048Z,28.00
2022-11-29T22:48:43.761Z,27.07
2022-11-29T22:51:13.539Z,28.13
2022-11-29T22:53:43.549Z,32.60
2022-11-29T22:56:12.675Z,27.27
2022-11-29T22:58:42.103Z,28.23
2022-11-29T23:01:12.083Z,29.93
2022-11-29T23:03:41.358Z,25.83
2022-11-29T23:06:11.171Z,31.40
2022-11-29T23:08:40.508Z,28.37
2022-11-29T23:11:11.758Z,32.30
2022-11-29T23:13:42.682Z,33.27
2022-11-29T23:16:13.111Z,31.60
2022-11-29T23:18:42.348Z,32.20
2022-11-29T23:21:12.177Z,40.10
2022-11-29T23:23:40.496Z,35.13
2022-11-29T23:26:09.931Z,38.20
2022-11-29T23:28:37.960Z,35.87
2022-11-29T23:31:07.470Z,35.43
2022-11-29T23:33:35.508Z,35.50
2022-11-29T23:36:05.195Z,36.10
2022-11-29T23:38:34.328Z,34.20
2022-11-29T23:41:02.533Z,31.90
2022-11-29T23:43:35.347Z,39.50
2022-11-29T23:46:08.255Z,34.50
2022-11-29T23:48:36.345Z,39.00
2022-11-29T23:51:04.596Z,33.87
2022-11-29T23:53:32.780Z,38.37
2022-11-29T23:56:02.252Z,36.20
2022-11-29T23:58:31.639Z,43.67
